Time;durP1;ratioP1;P1;durP2;ratioP2;P2;SDS_P1;SDS_P2;PMS_P1;PMS_P2;Temp;Humidity;BMP_temperature;BMP_pressure;BME280_temperature;BME280_humidity;BME280_pressure;Samples;Min_cycle;Max_cycle;Signal;HPM_P1;HPM_P2
2023/06/30 00:01:50;;;;;;;9.48;4.80;;;;;;;14.08;100.00;101328.19;5056359;28;20025;-49
2023/06/30 00:04:18;;;;;;;10.93;5.20;;;;;;;14.08;100.00;101341.13;5055714;28;20020;-50
2023/06/30 00:06:44;;;;;;;10.07;4.80;;;;;;;14.01;100.00;101334.09;5056045;28;20036;-48
2023/06/30 00:09:10;;;;;;;14.63;5.82;;;;;;;13.93;100.00;101338.19;5056419;28;20029;-47
2023/06/30 00:11:38;;;;;;;11.70;5.75;;;;;;;13.79;100.00;101336.16;5055310;28;20032;-49
2023/06/30 00:14:04;;;;;;;10.82;5.47;;;;;;;13.80;100.00;101332.72;5056077;28;20025;-48
2023/06/30 00:16:31;;;;;;;11.05;5.50;;;;;;;13.74;100.00;101335.16;5055299;28;20036;-48
2023/06/30 00:18:56;;;;;;;;;;;;;;;13.87;100.00;101340.66;5056527;28;20033;-49
2023/06/30 00:21:22;;;;;;;14.30;6.00;;;;;;;13.71;100.00;101340.28;5055925;28;19913;-50
2023/06/30 00:23:47;;;;;;;14.63;6.18;;;;;;;13.69;100.00;101328.13;5055035;28;20621;-49
2023/06/30 00:26:12;;;;;;;11.52;5.85;;;;;;;13.63;100.00;101334.91;5055855;28;20473;-49
2023/06/30 00:28:39;;;;;;;13.25;6.00;;;;;;;13.63;100.00;101334.03;5055778;28;20045;-49
2023/06/30 00:31:04;;;;;;;16.30;6.90;;;;;;;13.64;100.00;101330.59;5055245;28;20017;-48
2023/06/30 00:33:29;;;;;;;11.85;5.57;;;;;;;13.50;100.00;101328.56;5055696;28;20025;-49
2023/06/30 00:35:55;;;;;;;14.77;5.40;;;;;;;13.52;100.00;101332.88;5055966;28;20153;-50
2023/06/30 00:38:20;;;;;;;14.63;5.75;;;;;;;13.44;100.00;101328.41;5055040;28;20058;-45
2023/06/30 00:40:45;;;;;;;11.95;5.65;;;;;;;13.36;100.00;101329.84;5055515;28;20457;-48
2023/06/30 00:43:11;;;;;;;11.57;5.53;;;;;;;13.30;100.00;101325.41;5055589;28;20016;-48
2023/06/30 00:45:36;;;;;;;16.58;5.70;;;;;;;13.25;100.00;101326.13;5054770;28;20047;-48
2023/06/30 00:48:03;;;;;;;13.65;6.22;;;;;;;13.09;100.00;101328.31;5055683;28;20048;-49
2023/06/30 00:50:28;;;;;;;11.25;5.93;;;;;;;13.14;100.00;101320.66;5055472;28;20045;-49
2023/06/30 00:52:55;;;;;;;16.30;6.78;;;;;;;13.04;100.00;101322.13;5054572;28;20558;-50
2023/06/30 00:55:20;;;;;;;16.98;5.80;;;;;;;12.98;100.00;101321.97;5055467;28;20120;-47
2023/06/30 00:57:46;;;;;;;11.35;5.85;;;;;;;12.96;100.00;101318.44;5055006;28;20029;-50
2023/06/30 01:00:12;;;;;;;12.60;5.63;;;;;;;12.84;100.00;101324.16;5054470;28;20116;-49
2023/06/30 01:02:48;;;;;;;12.80;6.15;;;;;;;12.85;100.00;101323.34;5054930;28;20024;-47
2023/06/30 01:05:25;;;;;;;13.63;5.87;;;;;;;12.85;100.00;101321.63;5054675;28;20036;-49
2023/06/30 01:08:16;;;;;;;14.88;5.53;;;;;;;12.81;100.00;101324.97;5054613;28;20276;-49
2023/06/30 01:10:43;;;;;;;20.20;6.43;;;;;;;12.77;100.00;101333.47;5055115;28;20053;-49
2023/06/30 01:13:09;;;;;;;14.32;5.78;;;;;;;12.80;100.00;101330.97;5054409;28;20036;-49
2023/06/30 01:15:36;;;;;;;15.95;5.97;;;;;;;12.76;100.00;101326.53;5054821;28;20073;-48
2023/06/30 01:18:02;;;;;;;14.77;5.93;;;;;;;12.73;100.00;101326.47;5054966;28;20028;-49
2023/06/30 01:20:30;;;;;;;14.80;5.53;;;;;;;12.77;100.00;101327.41;5053966;28;20029;-46
2023/06/30 01:23:20;;;;;;;20.58;5.75;;;;;;;12.76;100.00;101331.72;5054755;28;20041;-48
2023/06/30 01:25:48;;;;;;;12.95;5.93;;;;;;;12.65;100.00;101322.75;5054823;28;20036;-51
2023/06/30 01:28:14;;;;;;;22.13;6.43;;;;;;;12.68;100.00;101325.47;5054143;28;20108;-49
2023/06/30 01:30:40;;;;;;;14.90;5.38;;;;;;;12.66;100.00;101325.38;5054492;28;20029;-49
2023/06/30 01:33:05;;;;;;;14.52;5.60;;;;;;;12.62;100.00;101335.63;5054821;28;20069;-50
2023/06/30 01:35:31;;;;;;;15.00;6.22;;;;;;;12.62;100.00;101330.44;5053616;28;20393;-50
2023/06/30 01:37:56;;;;;;;11.43;5.25;;;;;;;12.58;100.00;101331.19;5054575;28;20357;-47
2023/06/30 01:40:22;;;;;;;12.48;4.93;;;;;;;12.59;100.00;101332.91;5054709;28;20389;-50
2023/06/30 01:42:52;;;;;;;12.93;4.93;;;;;;;12.44;100.00;101333.38;5053951;28;20469;-50
2023/06/30 01:45:18;;;;;;;10.82;5.38;;;;;;;12.44;100.00;101328.19;5054516;28;20050;-49
2023/06/30 01:47:44;;;;;;;11.35;5.00;;;;;;;12.40;100.00;101324.63;5054207;28;20103;-48
2023/06/30 01:50:10;;;;;;;16.60;5.43;;;;;;;12.35;100.00;101321.03;5053813;28;20025;-48
2023/06/30 01:52:35;;;;;;;15.48;5.50;;;;;;;12.26;100.00;101315.59;5054100;28;20064;-49
2023/06/30 01:55:02;;;;;;;12.30;5.45;;;;;;;12.17;100.00;101317.09;5053580;28;20103;-50
2023/06/30 01:57:27;;;;;;;12.30;4.93;;;;;;;12.15;100.00;101318.72;5053853;28;20064;-44
2023/06/30 01:59:53;;;;;;;13.07;5.20;;;;;;;12.02;100.00;101314.03;5054256;28;20361;-49
2023/06/30 02:02:18;;;;;;;11.65;5.05;;;;;;;11.92;100.00;101317.13;5053367;28;20029;-47
2023/06/30 02:04:43;;;;;;;13.70;5.80;;;;;;;11.85;100.00;101306.59;5054068;28;20021;-49
2023/06/30 02:07:09;;;;;;;12.00;5.43;;;;;;;11.84;100.00;101312.56;5054152;28;20047;-50
2023/06/30 02:09:34;;;;;;;10.70;4.90;;;;;;;11.73;100.00;101305.31;5053020;28;20032;-49
2023/06/30 02:11:59;;;;;;;10.85;5.47;;;;;;;11.73;100.00;101305.31;5053989;28;20461;-47
2023/06/30 02:14:24;;;;;;;15.93;5.40;;;;;;;11.61;100.00;101308.38;5053730;28;20032;-48
2023/06/30 02:16:50;;;;;;;12.73;5.28;;;;;;;11.58;100.00;101310.84;5052103;28;20021;-46
2023/06/30 02:19:15;;;;;;;10.27;5.05;;;;;;;11.51;100.00;101310.63;5053663;28;20380;-48
2023/06/30 02:21:41;;;;;;;9.82;4.85;;;;;;;11.46;100.00;101317.34;5053190;28;20098;-50
2023/06/30 02:24:07;;;;;;;11.07;4.93;;;;;;;11.46;100.00;101317.34;5053143;28;20079;-50
2023/06/30 02:26:35;;;;;;;17.95;6.13;;;;;;;11.45;100.00;101313.03;5053667;28;20032;-48
2023/06/30 02:29:00;;;;;;;11.30;4.60;;;;;;;11.39;100.00;101305.09;5053388;28;20024;-49
2023/06/30 02:31:29;;;;;;;15.60;5.05;;;;;;;11.31;100.00;101314.25;5052647;28;20388;-49
2023/06/30 02:33:54;;;;;;;11.57;4.60;;;;;;;11.25;100.00;101311.50;5053465;28;20452;-47
2023/06/30 02:36:19;;;;;;;12.82;4.60;;;;;;;11.17;100.00;101317.25;5053556;28;20021;-48
2023/06/30 02:38:45;;;;;;;11.38;4.57;;;;;;;11.07;100.00;101317.75;5052599;28;20025;-49
2023/06/30 02:41:10;;;;;;;14.93;5.40;;;;;;;10.96;100.00;101319.97;5053521;28;20104;-46
2023/06/30 02:43:35;;;;;;;11.27;4.40;;;;;;;11.04;100.00;101331.41;5053179;28;20120;-48
2023/06/30 02:46:01;;;;;;;10.20;5.05;;;;;;;11.01;100.00;101328.75;5052685;28;20028;-49
2023/06/30 02:48:26;;;;;;;11.02;4.60;;;;;;;10.97;100.00;101334.59;5053160;28;20033;-49
2023/06/30 02:50:51;;;;;;;10.90;4.60;;;;;;;10.97;100.00;101337.16;5053445;28;20025;-47
2023/06/30 02:53:16;;;;;;;11.48;5.38;;;;;;;10.98;100.00;101338.06;5052661;28;20100;-47
2023/06/30 02:55:42;;;;;;;12.07;5.18;;;;;;;10.88;100.00;101342.00;5052979;28;20032;-49
2023/06/30 02:58:07;;;;;;;16.27;5.57;;;;;;;10.89;100.00;101336.03;5053117;28;20040;-49
2023/06/30 03:00:34;;;;;;;9.68;5.20;;;;;;;10.91;100.00;101341.22;5052032;28;20055;-48
2023/06/30 03:02:59;;;;;;;10.30;5.35;;;;;;;11.06;100.00;101339.22;5053301;28;20110;-50
2023/06/30 03:05:24;;;;;;;9.82;4.47;;;;;;;10.86;100.00;101344.53;5051936;28;20033;-46
2023/06/30 03:07:50;;;;;;;13.18;4.80;;;;;;;10.84;100.00;101346.16;5053188;28;20025;-48
2023/06/30 03:10:15;;;;;;;11.38;4.75;;;;;;;10.76;100.00;101342.44;5053004;28;20048;-48
2023/06/30 03:12:40;;;;;;;12.23;5.35;;;;;;;10.79;100.00;101342.53;5051862;28;20037;-47
2023/06/30 03:15:06;;;;;;;8.35;4.40;;;;;;;10.69;100.00;101346.50;5052774;28;20499;-49
2023/06/30 03:17:32;;;;;;;9.45;4.47;;;;;;;10.71;100.00;101333.66;5052411;28;20029;-46
2023/06/30 03:19:57;;;;;;;13.65;5.00;;;;;;;10.69;100.00;101345.59;5052265;28;20104;-49
2023/06/30 03:22:22;;;;;;;16.10;5.43;;;;;;;10.64;100.00;101341.97;5052442;28;20041;-46
2023/06/30 03:24:48;;;;;;;11.07;5.35;;;;;;;10.63;100.00;101341.09;5052863;28;20058;-47
2023/06/30 03:27:14;;;;;;;13.88;5.88;;;;;;;10.54;100.00;101322.72;5051648;28;20112;-49
2023/06/30 03:29:39;;;;;;;12.68;5.50;;;;;;;10.46;100.00;101331.88;5052359;28;20492;-44
2023/06/30 03:32:07;;;;;;;12.65;5.03;;;;;;;10.40;100.00;101329.94;5052856;28;20033;-50
2023/06/30 03:34:33;;;;;;;12.23;5.50;;;;;;;10.39;100.00;101323.00;5051919;28;20066;-49
2023/06/30 03:36:58;;;;;;;13.18;5.38;;;;;;;10.37;100.00;101324.66;5052865;28;20108;-48
2023/06/30 03:39:23;;;;;;;13.02;5.50;;;;;;;10.34;100.00;101327.06;5052336;28;20036;-49
2023/06/30 03:41:49;;;;;;;13.65;5.32;;;;;;;10.26;100.00;101326.78;5051912;28;20385;-48
2023/06/30 03:44:14;;;;;;;13.35;5.88;;;;;;;10.17;100.00;101324.75;5052489;28;20033;-44
2023/06/30 03:46:40;;;;;;;11.15;5.45;;;;;;;10.10;100.00;101317.59;5052215;28;20033;-44
2023/06/30 03:49:05;;;;;;;9.15;5.47;;;;;;;10.01;100.00;101319.81;5052064;28;20021;-48
2023/06/30 03:51:31;;;;;;;10.68;5.30;;;;;;;10.01;100.00;101320.69;5052183;28;20472;-44
2023/06/30 03:53:56;;;;;;;14.05;6.10;;;;;;;9.97;100.00;101315.38;5052545;28;20033;-45
2023/06/30 03:56:21;;;;;;;10.43;6.15;;;;;;;9.89;100.00;101312.50;5051883;28;20017;-49
2023/06/30 03:58:47;;;;;;;12.27;5.75;;;;;;;9.84;100.00;101320.03;5052132;28;20039;-48
2023/06/30 04:01:12;;;;;;;11.55;5.53;;;;;;;9.80;100.00;101319.81;5052429;28;20104;-47
2023/06/30 04:03:38;;;;;;;12.48;6.80;;;;;;;9.87;100.00;101317.56;5051396;28;20025;-44
2023/06/30 04:06:03;;;;;;;13.02;6.00;;;;;;;9.72;100.00;101317.84;5052534;28;20495;-49
2023/06/30 04:08:29;;;;;;;10.73;5.70;;;;;;;9.76;100.00;101313.69;5052092;28;20443;-50
2023/06/30 04:10:54;;;;;;;13.30;6.65;;;;;;;9.75;100.00;101323.91;5051796;28;20032;-47
2023/06/30 04:13:19;;;;;;;12.20;6.15;;;;;;;9.77;100.00;101323.16;5052285;28;20033;-50
2023/06/30 04:15:45;;;;;;;12.38;6.30;;;;;;;9.77;100.00;101318.00;5051271;28;20032;-50
2023/06/30 04:18:10;;;;;;;10.10;5.80;;;;;;;9.77;100.00;101320.56;5052344;28;20033;-44
2023/06/30 04:20:35;;;;;;;13.07;7.15;;;;;;;9.94;100.00;101315.22;5052154;28;20025;-48
2023/06/30 04:23:01;;;;;;;12.63;6.45;;;;;;;9.95;100.00;101324.72;5051370;28;20067;-44
2023/06/30 04:25:26;;;;;;;16.95;8.85;;;;;;;10.10;100.00;101317.59;5051780;28;20478;-49
2023/06/30 04:27:51;;;;;;;13.70;7.30;;;;;;;10.09;100.00;101323.56;5052256;28;20036;-50
2023/06/30 04:30:17;;;;;;;23.30;9.68;;;;;;;10.34;100.00;101321.94;5051456;28;20022;-50
2023/06/30 04:32:42;;;;;;;23.35;11.40;;;;;;;10.56;100.00;101320.19;5051765;28;20036;-50
2023/06/30 04:35:08;;;;;;;21.83;11.90;;;;;;;10.70;100.00;101324.16;5052200;28;20028;-50
2023/06/30 04:37:40;;;;;;;19.27;11.13;;;;;;;10.73;100.00;101318.25;5051003;28;20504;-48
2023/06/30 04:40:08;;;;;;;22.10;11.77;;;;;;;10.90;100.00;101318.84;5053787;28;20496;-48
2023/06/30 04:42:33;;;;;;;22.63;10.13;;;;;;;10.98;100.00;101317.44;5055279;28;20380;-48
2023/06/30 04:44:59;;;;;;;20.25;10.00;;;;;;;11.09;100.00;101316.13;5054990;28;20028;-49
2023/06/30 04:47:24;;;;;;;17.13;9.18;;;;;;;11.13;100.00;101317.97;5055525;28;20049;-48
2023/06/30 04:49:49;;;;;;;21.50;9.38;;;;;;;11.22;100.00;101311.38;5055605;28;20049;-49
2023/06/30 04:52:15;;;;;;;16.60;8.57;;;;;;;11.25;100.00;101314.06;5054783;28;20044;-47
2023/06/30 04:54:41;;;;;;;22.13;9.02;;;;;;;11.33;100.00;101317.78;5055148;28;20048;-48
2023/06/30 04:57:06;;;;;;;17.25;8.68;;;;;;;11.37;100.00;101319.63;5055286;28;20058;-50
2023/06/30 04:59:31;;;;;;;18.92;9.13;;;;;;;11.45;100.00;101320.78;5054122;28;20075;-45
2023/06/30 05:01:57;;;;;;;19.13;8.32;;;;;;;11.49;100.00;101327.78;5055192;28;20028;-46
2023/06/30 05:04:22;;;;;;;18.27;8.65;;;;;;;11.56;100.00;101322.84;5055183;28;20028;-46
2023/06/30 05:06:47;;;;;;;17.10;8.90;;;;;;;11.62;100.00;101323.03;5054719;28;20029;-47
2023/06/30 05:09:13;;;;;;;17.92;8.27;;;;;;;11.68;100.00;101315.47;5055005;28;20526;-45
2023/06/30 05:11:38;;;;;;;18.15;8.10;;;;;;;11.73;100.00;101324.25;5055111;28;20028;-47
2023/06/30 05:14:04;;;;;;;14.45;9.07;;;;;;;11.83;100.00;101312.53;5054295;28;20442;-47
2023/06/30 05:16:30;;;;;;;15.38;7.50;;;;;;;11.91;100.00;101316.22;5054864;28;20025;-49
2023/06/30 05:18:55;;;;;;;18.35;8.25;;;;;;;11.96;100.00;101313.84;5054337;28;20036;-47
2023/06/30 05:21:20;;;;;;;21.65;8.32;;;;;;;12.05;100.00;101314.13;5054857;28;20017;-47
2023/06/30 05:23:45;;;;;;;14.07;7.80;;;;;;;12.15;100.00;101316.16;5054644;28;20025;-48
2023/06/30 05:26:11;;;;;;;16.80;7.70;;;;;;;12.22;100.00;101316.34;5054072;28;20119;-49
2023/06/30 05:28:36;;;;;;;17.00;7.88;;;;;;;12.27;100.00;101323.41;5054536;28;20100;-49
2023/06/30 05:31:03;;;;;;;19.40;8.55;;;;;;;12.37;100.00;101324.56;5054718;28;20372;-48
2023/06/30 05:33:28;;;;;;;14.90;7.50;;;;;;;12.44;100.00;101317.84;5053870;28;20035;-49
2023/06/30 05:35:53;;;;;;;19.05;7.93;;;;;;;12.55;100.00;101319.06;5054791;28;20172;-48
2023/06/30 05:38:19;;;;;;;18.50;8.48;;;;;;;12.61;100.00;101315.75;5054617;28;20074;-48
2023/06/30 05:40:44;;;;;;;17.63;7.70;;;;;;;12.70;100.00;101323.78;5053687;28;20159;-49
2023/06/30 05:43:10;;;;;;;16.80;7.28;;;;;;;12.73;100.00;101317.81;5054521;28;20040;-50
2023/06/30 05:45:35;;;;;;;12.30;7.18;;;;;;;12.81;100.00;101324.09;5054131;28;20021;-49
2023/06/30 05:48:01;;;;;;;14.43;7.50;;;;;;;12.89;100.00;101332.06;5053754;28;20037;-50
2023/06/30 05:50:27;;;;;;;17.02;7.75;;;;;;;12.95;100.00;101321.88;5054103;28;20029;-49
2023/06/30 05:52:53;;;;;;;15.20;7.95;;;;;;;13.00;100.00;101328.03;5054390;28;20017;-50
2023/06/30 05:55:18;;;;;;;17.40;7.40;;;;;;;13.13;100.00;101332.72;5053494;28;20029;-49
2023/06/30 05:57:44;;;;;;;16.98;7.75;;;;;;;13.22;100.00;101323.44;5053910;28;20107;-49
2023/06/30 06:00:10;;;;;;;12.05;6.22;;;;;;;13.36;100.00;101323.81;5054096;28;20037;-50
2023/06/30 06:02:35;;;;;;;11.52;6.30;;;;;;;13.46;100.00;101329.28;5053186;28;20029;-48
2023/06/30 06:05:00;;;;;;;13.90;6.68;;;;;;;13.54;100.00;101331.22;5054221;28;20037;-49
2023/06/30 06:07:26;;;;;;;12.90;5.45;;;;;;;13.61;100.00;101330.53;5053836;28;20028;-49
2023/06/30 06:09:51;;;;;;;8.95;5.00;;;;;;;13.76;100.00;101325.75;5053348;28;20028;-49
2023/06/30 06:12:16;;;;;;;10.25;5.18;;;;;;;13.84;100.00;101331.09;5054164;28;20078;-45
2023/06/30 06:14:42;;;;;;;12.85;5.05;;;;;;;13.92;100.00;101324.38;5053503;28;20091;-50
2023/06/30 06:17:07;;;;;;;11.82;4.57;;;;;;;14.03;100.00;101324.59;5053325;28;20016;-49
2023/06/30 06:19:33;;;;;;;8.95;4.65;;;;;;;14.19;100.00;101327.56;5053469;28;20045;-49
2023/06/30 06:21:58;;;;;;;11.55;4.85;;;;;;;14.26;100.00;101332.91;5053686;28;20037;-50
2023/06/30 06:24:23;;;;;;;13.63;5.32;;;;;;;14.36;100.00;101330.50;5052687;28;20033;-48
2023/06/30 06:26:49;;;;;;;12.02;4.95;;;;;;;14.54;100.00;101337.81;5053600;28;20044;-50
2023/06/30 06:29:18;;;;;;;12.25;4.93;;;;;;;14.58;100.00;101335.31;5053275;28;20035;-48
2023/06/30 06:31:45;;;;;;;10.82;4.88;;;;;;;14.63;100.00;101332.84;5053589;28;20017;-48
2023/06/30 06:34:11;;;;;;;11.45;4.40;;;;;;;14.74;98.90;101335.69;5053490;28;20017;-46
2023/06/30 06:36:37;;;;;;;11.10;4.55;;;;;;;14.84;97.38;101332.41;5052506;28;20048;-49
2023/06/30 06:39:02;;;;;;;12.75;3.92;;;;;;;14.92;95.90;101335.16;5053321;28;20036;-47
2023/06/30 06:41:27;;;;;;;9.68;4.07;;;;;;;15.01;95.11;101339.66;5052857;28;20045;-45
2023/06/30 06:43:52;;;;;;;8.50;3.70;;;;;;;15.02;94.24;101339.69;5052580;28;20023;-48
2023/06/30 06:46:18;;;;;;;10.27;3.83;;;;;;;15.18;96.43;101345.16;5053487;28;20025;-47
2023/06/30 06:48:43;;;;;;;13.80;4.57;;;;;;;15.23;91.91;101340.94;5053226;28;20028;-45
2023/06/30 06:51:08;;;;;;;10.27;3.83;;;;;;;15.36;92.17;101337.69;5052628;28;20021;-46
2023/06/30 06:53:34;;;;;;;9.82;3.40;;;;;;;15.44;89.84;101336.13;5053003;28;20438;-48
2023/06/30 06:56:01;;;;;;;9.57;3.70;;;;;;;15.54;91.58;101336.28;5053174;28;20025;-45
2023/06/30 06:58:32;;;;;;;8.60;3.38;;;;;;;15.73;87.46;101335.72;5052368;28;20090;-47
2023/06/30 07:00:57;;;;;;;9.73;3.53;;;;;;;15.79;85.91;101332.38;5053310;28;20024;-50
2023/06/30 07:03:23;;;;;;;9.95;3.83;;;;;;;15.78;85.60;101341.03;5052238;28;20017;-45
2023/06/30 07:05:49;;;;;;;8.60;3.10;;;;;;;15.90;87.26;101336.03;5049107;28;20115;-44
2023/06/30 07:08:16;;;;;;;11.27;3.85;;;;;;;16.13;85.45;101343.31;5044263;28;20041;-49
2023/06/30 07:10:42;;;;;;;;;;;;;;;16.12;91.32;101342.41;5052802;28;20094;-46
2023/06/30 07:13:08;;;;;;;6.68;3.22;;;;;;;16.18;84.92;101336.44;5052234;28;19936;-49
2023/06/30 07:15:33;;;;;;;6.13;3.08;;;;;;;16.21;83.03;101339.09;5052869;28;20024;-49
2023/06/30 07:17:59;;;;;;;13.60;3.15;;;;;;;16.34;80.70;101337.53;5052666;28;20464;-50
2023/06/30 07:20:25;;;;;;;7.28;2.28;;;;;;;16.49;79.17;101339.47;5051846;28;20115;-48
2023/06/30 07:22:52;;;;;;;4.55;2.17;;;;;;;16.62;78.28;101343.09;5052699;28;20041;-48
2023/06/30 07:25:17;;;;;;;5.78;2.20;;;;;;;16.72;79.46;101344.97;5052615;28;20032;-44
2023/06/30 07:27:52;;;;;;;6.13;2.00;;;;;;;16.81;76.82;101344.22;5051933;28;20033;-49
2023/06/30 07:30:20;;;;;;;8.52;2.45;;;;;;;16.90;73.72;101348.63;5052818;28;20029;-44
2023/06/30 07:32:45;;;;;;;8.35;2.28;;;;;;;17.00;74.40;101345.31;5051680;28;20161;-49
2023/06/30 07:35:10;;;;;;;7.35;1.88;;;;;;;17.04;73.08;101343.63;5052940;28;20079;-48
2023/06/30 07:37:36;;;;;;;6.60;2.00;;;;;;;17.13;71.24;101342.84;5051928;28;20031;-48
2023/06/30 07:40:02;;;;;;;7.38;1.98;;;;;;;17.26;70.85;101352.50;5051779;28;20123;-48
2023/06/30 07:42:27;;;;;;;5.13;1.90;;;;;;;17.31;70.53;101342.16;5052394;28;20020;-49
2023/06/30 07:44:52;;;;;;;7.28;1.90;;;;;;;17.42;69.46;101354.41;5052562;28;20025;-44
2023/06/30 07:47:20;;;;;;;7.05;1.98;;;;;;;17.42;70.63;101348.34;5051761;28;20031;-46
2023/06/30 07:49:46;;;;;;;6.78;1.90;;;;;;;17.44;68.76;101344.91;5052166;28;20420;-49
2023/06/30 07:52:11;;;;;;;5.35;1.70;;;;;;;17.62;67.61;101345.91;5049966;28;20074;-44
2023/06/30 07:54:37;;;;;;;8.68;2.03;;;;;;;17.59;62.89;101351.09;5051320;28;20049;-46
2023/06/30 07:57:02;;;;;;;6.50;1.63;;;;;;;17.64;62.02;101338.97;5052662;28;20075;-49
2023/06/30 07:59:28;;;;;;;8.15;2.03;;;;;;;17.78;66.44;101347.78;5052060;28;20033;-46
2023/06/30 08:01:53;;;;;;;5.35;1.45;;;;;;;17.92;62.24;101341.78;5051703;28;20393;-50
2023/06/30 08:04:18;;;;;;;6.65;1.90;;;;;;;17.97;62.72;101350.53;5052638;28;20381;-46
2023/06/30 08:06:44;;;;;;;5.70;1.70;;;;;;;17.99;63.62;101350.56;5052054;28;20025;-45
2023/06/30 08:09:10;;;;;;;8.70;1.90;;;;;;;18.22;65.37;101348.97;5051523;28;20388;-44
2023/06/30 08:11:38;;;;;;;4.90;1.60;;;;;;;18.20;62.78;101349.84;5052223;28;20465;-50
2023/06/30 08:14:04;;;;;;;8.02;2.13;;;;;;;18.21;61.16;101348.97;5051048;28;20036;-46
2023/06/30 08:16:29;;;;;;;6.47;1.90;;;;;;;18.33;64.92;101345.56;5055322;28;20025;-45
2023/06/30 08:18:55;;;;;;;4.60;1.80;;;;;;;18.42;62.61;101333.44;5056012;28;20389;-45
2023/06/30 08:21:20;;;;;;;5.78;1.70;;;;;;;18.47;56.87;101337.81;5055912;28;20063;-49
2023/06/30 08:23:45;;;;;;;4.97;1.70;;;;;;;18.55;57.91;101342.19;5054988;28;20377;-46
2023/06/30 08:26:11;;;;;;;8.60;1.77;;;;;;;18.72;59.52;101339.66;5056111;28;20484;-44
2023/06/30 08:28:36;;;;;;;7.07;1.77;;;;;;;18.78;55.70;101344.00;5055625;28;20124;-45
2023/06/30 08:31:01;;;;;;;6.53;1.70;;;;;;;19.00;57.90;101339.75;5055298;28;20025;-45
2023/06/30 08:33:30;;;;;;;5.63;1.90;;;;;;;19.12;55.28;101343.28;5055593;28;20111;-44
2023/06/30 08:35:56;;;;;;;9.60;2.40;;;;;;;18.95;54.06;101335.41;5055067;28;20029;-48
2023/06/30 08:38:22;;;;;;;6.25;1.77;;;;;;;19.19;56.68;101334.59;5055936;28;20040;-45
2023/06/30 08:40:47;;;;;;;10.23;2.40;;;;;;;19.42;60.37;101325.03;5055266;28;20450;-50
2023/06/30 08:43:13;;;;;;;4.43;1.90;;;;;;;19.74;58.75;101320.66;5054890;28;20116;-48
2023/06/30 08:45:48;;;;;;;7.38;1.90;;;;;;;19.79;57.41;101323.28;5046278;28;20116;-44
2023/06/30 08:48:16;;;;;;;5.70;1.92;;;;;;;20.07;54.95;101319.75;5035549;28;20370;-49
2023/06/30 08:50:42;;;;;;;6.70;2.10;;;;;;;20.34;54.54;101315.31;5034667;28;20030;-48
2023/06/30 08:53:07;;;;;;;7.65;2.22;;;;;;;20.37;52.94;101320.56;5035037;28;20376;-44
2023/06/30 08:55:33;;;;;;;5.70;2.03;;;;;;;20.50;51.28;101318.78;5035577;28;20488;-47
2023/06/30 08:57:58;;;;;;;5.00;1.60;;;;;;;20.48;49.42;101317.03;5034764;28;20029;-49
2023/06/30 09:00:24;;;;;;;8.82;1.88;;;;;;;20.70;49.56;101318.69;5035068;28;20032;-48
2023/06/30 09:02:50;;;;;;;4.82;1.52;;;;;;;20.50;50.13;101315.25;5035472;28;20072;-50
2023/06/30 09:05:16;;;;;;;5.75;1.88;;;;;;;20.26;45.32;101313.59;5049067;28;20024;-45
2023/06/30 09:07:46;;;;;;;5.53;1.80;;;;;;;20.54;47.92;101322.22;5054921;28;20217;-50
2023/06/30 09:10:13;;;;;;;4.32;1.85;;;;;;;20.43;48.45;101321.41;5055318;28;20021;-45
2023/06/30 09:12:44;;;;;;;7.15;1.88;;;;;;;20.75;47.67;101317.78;5054196;28;20158;-46
2023/06/30 09:15:10;;;;;;;7.53;1.55;;;;;;;21.00;48.99;101306.28;5054781;28;20036;-48
2023/06/30 09:17:35;;;;;;;6.72;1.98;;;;;;;21.09;48.65;101305.38;5054817;28;20025;-48
2023/06/30 09:20:01;;;;;;;7.70;1.85;;;;;;;21.03;46.92;101306.28;5054144;28;20041;-49
2023/06/30 09:22:26;;;;;;;8.10;1.98;;;;;;;20.97;49.32;101315.94;5054521;28;20049;-48
2023/06/30 09:24:51;;;;;;;7.15;2.10;;;;;;;21.17;44.03;101307.94;5051801;28;20021;-46
2023/06/30 09:27:18;;;;;;;7.00;1.92;;;;;;;21.06;44.25;101305.41;5054185;28;20032;-44
2023/06/30 09:29:53;;;;;;;4.95;1.88;;;;;;;21.19;45.48;101308.81;5037090;28;20048;-45
2023/06/30 09:32:29;;;;;;;6.05;2.10;;;;;;;21.20;45.50;101302.66;5034305;28;20030;-48
2023/06/30 09:34:54;;;;;;;6.70;2.22;;;;;;;21.63;47.49;101299.72;5050331;28;20083;-43
2023/06/30 09:37:20;;;;;;;7.00;2.10;;;;;;;22.08;45.40;101316.78;5040928;28;20087;-48
2023/06/30 09:39:50;;;;;;;10.13;2.67;;;;;;;22.25;44.70;101304.34;5053682;28;20036;-45
2023/06/30 09:42:16;;;;;;;6.20;2.17;;;;;;;22.39;43.37;101298.06;5054689;28;20045;-47
2023/06/30 09:44:41;;;;;;;8.30;2.65;;;;;;;22.33;44.99;101299.00;5054221;28;20455;-48
2023/06/30 09:47:07;;;;;;;6.93;2.20;;;;;;;22.76;44.26;101300.22;5053852;28;20033;-44
2023/06/30 09:49:32;;;;;;;9.30;2.42;;;;;;;22.74;43.58;101299.41;5043984;28;20114;-44
2023/06/30 09:51:59;;;;;;;7.53;2.55;;;;;;;22.39;44.44;101298.97;5048442;28;20063;-45
2023/06/30 09:54:26;;;;;;;6.93;2.20;;;;;;;22.24;44.13;101297.34;5053342;28;20025;-48
2023/06/30 09:57:05;;;;;;;7.32;2.30;;;;;;;21.98;44.66;101303.75;5052903;28;20021;-48
2023/06/30 09:59:31;;;;;;;8.25;2.30;;;;;;;21.56;45.00;101300.66;5053737;28;20033;-45
2023/06/30 10:01:56;;;;;;;7.05;2.15;;;;;;;21.57;43.23;101299.78;5053582;28;20506;-45
2023/06/30 10:04:24;;;;;;;7.38;1.90;;;;;;;22.46;42.04;101294.50;5040906;28;20033;-48
2023/06/30 10:06:54;;;;;;;13.85;2.42;;;;;;;23.18;41.14;101292.63;5049878;28;20112;-48
2023/06/30 10:09:21;;;;;;;10.82;2.15;;;;;;;23.29;41.98;101288.06;5053011;28;20106;-45
2023/06/30 10:11:52;;;;;;;7.55;2.40;;;;;;;23.44;39.37;101291.34;5053175;28;20021;-45
2023/06/30 10:14:19;;;;;;;10.20;2.67;;;;;;;24.14;38.04;101288.31;5053838;28;20079;-44
2023/06/30 10:16:47;;;;;;;8.00;2.67;;;;;;;24.49;37.80;101289.34;5049802;28;20021;-48
2023/06/30 10:19:12;;;;;;;;;;;;;;;24.68;42.30;101283.72;5048754;28;20029;-47
2023/06/30 10:21:38;;;;;;;5.25;1.92;;;;;;;23.78;39.68;101283.72;5052382;28;20698;-48
2023/06/30 10:24:04;;;;;;;6.03;2.10;;;;;;;23.91;39.75;101281.75;5052914;28;20037;-45
2023/06/30 10:26:33;;;;;;;5.93;2.28;;;;;;;24.36;39.33;101277.34;5053242;28;20032;-44
2023/06/30 10:28:58;;;;;;;5.95;2.10;;;;;;;24.64;38.30;101283.78;5053160;28;20072;-44
2023/06/30 10:31:25;;;;;;;6.93;2.13;;;;;;;24.75;35.56;101275.63;5053497;28;20448;-46
2023/06/30 10:33:51;;;;;;;5.90;1.80;;;;;;;24.90;34.61;101278.81;5053891;28;20025;-46
2023/06/30 10:36:18;;;;;;;7.97;2.28;;;;;;;25.44;34.53;101275.75;5052755;28;20033;-49
2023/06/30 10:38:46;;;;;;;11.57;2.67;;;;;;;25.37;34.29;101270.66;5052809;28;20044;-46
2023/06/30 10:41:17;;;;;;;13.90;2.70;;;;;;;25.84;34.15;101265.91;5053492;28;20053;-47
2023/06/30 10:44:05;;;;;;;7.47;2.53;;;;;;;26.60;33.65;101263.75;5052427;28;20040;-48
2023/06/30 10:46:46;;;;;;;6.45;2.10;;;;;;;26.46;34.31;101262.38;5053116;28;20056;-48
2023/06/30 10:49:31;;;;;;;9.18;2.35;;;;;;;26.36;34.42;101260.91;5053279;28;20468;-49
2023/06/30 10:52:07;;;;;;;7.95;1.70;;;;;;;26.99;34.54;101265.22;5053613;28;20052;-45
2023/06/30 10:54:41;;;;;;;10.20;2.53;;;;;;;27.17;33.40;101266.38;5052984;28;20418;-49
2023/06/30 10:57:11;;;;;;;5.90;2.25;;;;;;;27.67;32.40;101257.63;5052439;28;20029;-45
2023/06/30 10:59:44;;;;;;;7.85;2.55;;;;;;;28.85;30.76;101257.63;5052733;28;20029;-49
2023/06/30 11:02:19;;;;;;;8.95;3.03;;;;;;;28.03;30.55;101257.22;5053344;28;20036;-48
2023/06/30 11:04:49;;;;;;;5.50;2.40;;;;;;;28.58;30.70;101255.09;5052203;28;20098;-48
2023/06/30 11:07:19;;;;;;;8.85;2.70;;;;;;;28.47;30.64;101251.16;5053166;28;20036;-48
2023/06/30 11:09:47;;;;;;;8.82;2.20;;;;;;;28.74;31.70;101247.44;5052784;28;20029;-49
2023/06/30 11:12:15;;;;;;;5.78;2.08;;;;;;;29.54;30.41;101245.91;5052148;28;20055;-48
2023/06/30 11:14:59;;;;;;;10.20;2.45;;;;;;;29.92;31.86;101244.31;5053391;28;20063;-47